sensor_id;sensor_type;location;lat;lon;timestamp;temperature;humidity
71039;SHT30;58692;43.212;27.908;2023-12-14T00:00:15;9.02;97.81
71039;SHT30;58692;43.212;27.908;2023-12-14T00:02:40;9.10;97.90
71039;SHT30;58692;43.212;27.908;2023-12-14T00:05:06;9.05;98.11
71039;SHT30;58692;43.212;27.908;2023-12-14T00:07:32;9.06;98.04
71039;SHT30;58692;43.212;27.908;2023-12-14T00:09:57;9.07;98.06
71039;SHT30;58692;43.212;27.908;2023-12-14T00:12:23;9.06;98.10
71039;SHT30;58692;43.212;27.908;2023-12-14T00:14:48;9.03;98.08
71039;SHT30;58692;43.212;27.908;2023-12-14T00:17:14;9.06;98.00
71039;SHT30;58692;43.212;27.908;2023-12-14T00:19:40;9.06;98.14
71039;SHT30;58692;43.212;27.908;2023-12-14T00:22:05;9.07;98.50
71039;SHT30;58692;43.212;27.908;2023-12-14T00:24:31;9.07;98.36
71039;SHT30;58692;43.212;27.908;2023-12-14T00:26:56;9.05;98.35
71039;SHT30;58692;43.212;27.908;2023-12-14T00:29:22;9.05;98.52
71039;SHT30;58692;43.212;27.908;2023-12-14T00:31:48;9.05;98.55
71039;SHT30;58692;43.212;27.908;2023-12-14T00:34:13;9.05;98.44
71039;SHT30;58692;43.212;27.908;2023-12-14T00:36:39;9.03;98.18
71039;SHT30;58692;43.212;27.908;2023-12-14T00:39:04;9.03;98.20
71039;SHT30;58692;43.212;27.908;2023-12-14T00:41:30;9.00;98.51
71039;SHT30;58692;43.212;27.908;2023-12-14T00:43:56;9.03;98.37
71039;SHT30;58692;43.212;27.908;2023-12-14T00:46:22;9.02;98.44
71039;SHT30;58692;43.212;27.908;2023-12-14T00:48:47;8.97;98.43
71039;SHT30;58692;43.212;27.908;2023-12-14T00:51:13;8.99;98.41
71039;SHT30;58692;43.212;27.908;2023-12-14T00:53:38;9.02;98.64
71039;SHT30;58692;43.212;27.908;2023-12-14T00:56:04;9.03;98.64
71039;SHT30;58692;43.212;27.908;2023-12-14T00:58:30;9.02;98.73
71039;SHT30;58692;43.212;27.908;2023-12-14T01:00:55;9.03;98.73
71039;SHT30;58692;43.212;27.908;2023-12-14T01:03:21;9.00;98.78
71039;SHT30;58692;43.212;27.908;2023-12-14T01:05:46;9.07;98.80
71039;SHT30;58692;43.212;27.908;2023-12-14T01:08:12;9.09;98.88
71039;SHT30;58692;43.212;27.908;2023-12-14T01:10:38;9.12;98.82
71039;SHT30;58692;43.212;27.908;2023-12-14T01:13:03;9.10;98.83
71039;SHT30;58692;43.212;27.908;2023-12-14T01:15:29;9.09;98.81
71039;SHT30;58692;43.212;27.908;2023-12-14T01:17:54;9.07;98.80
71039;SHT30;58692;43.212;27.908;2023-12-14T01:20:20;9.09;98.82
71039;SHT30;58692;43.212;27.908;2023-12-14T01:22:45;9.06;98.84
71039;SHT30;58692;43.212;27.908;2023-12-14T01:25:11;9.03;98.84
71039;SHT30;58692;43.212;27.908;2023-12-14T01:27:37;9.06;98.92
71039;SHT30;58692;43.212;27.908;2023-12-14T01:30:03;9.06;98.98
71039;SHT30;58692;43.212;27.908;2023-12-14T01:32:29;9.06;99.09
71039;SHT30;58692;43.212;27.908;2023-12-14T01:34:54;9.07;99.00
71039;SHT30;58692;43.212;27.908;2023-12-14T01:37:20;9.09;99.01
71039;SHT30;58692;43.212;27.908;2023-12-14T01:39:46;9.02;99.00
71039;SHT30;58692;43.212;27.908;2023-12-14T01:42:11;9.00;98.95
71039;SHT30;58692;43.212;27.908;2023-12-14T01:44:37;9.00;98.96
71039;SHT30;58692;43.212;27.908;2023-12-14T01:47:02;8.99;98.89
71039;SHT30;58692;43.212;27.908;2023-12-14T01:49:28;9.00;98.83
71039;SHT30;58692;43.212;27.908;2023-12-14T01:51:54;8.97;98.82
71039;SHT30;58692;43.212;27.908;2023-12-14T01:54:19;8.95;98.67
71039;SHT30;58692;43.212;27.908;2023-12-14T01:56:45;8.90;98.63
71039;SHT30;58692;43.212;27.908;2023-12-14T01:59:11;8.83;98.45
71039;SHT30;58692;43.212;27.908;2023-12-14T02:01:42;8.76;98.46
71039;SHT30;58692;43.212;27.908;2023-12-14T02:04:08;8.51;98.00
71039;SHT30;58692;43.212;27.908;2023-12-14T02:06:35;8.49;98.23
71039;SHT30;58692;43.212;27.908;2023-12-14T02:09:01;8.41;97.48
71039;SHT30;58692;43.212;27.908;2023-12-14T02:11:27;8.31;97.25
71039;SHT30;58692;43.212;27.908;2023-12-14T02:13:52;8.30;97.37
71039;SHT30;58692;43.212;27.908;2023-12-14T02:16:18;8.31;97.43
71039;SHT30;58692;43.212;27.908;2023-12-14T02:18:45;8.27;97.31
71039;SHT30;58692;43.212;27.908;2023-12-14T02:21:11;8.21;97.15
71039;SHT30;58692;43.212;27.908;2023-12-14T02:23:43;8.23;97.27
71039;SHT30;58692;43.212;27.908;2023-12-14T02:26:09;8.17;97.21
71039;SHT30;58692;43.212;27.908;2023-12-14T02:28:35;8.23;97.28
71039;SHT30;58692;43.212;27.908;2023-12-14T02:31:00;8.25;97.18
71039;SHT30;58692;43.212;27.908;2023-12-14T02:33:26;8.24;97.12
71039;SHT30;58692;43.212;27.908;2023-12-14T02:35:52;8.18;97.09
71039;SHT30;58692;43.212;27.908;2023-12-14T02:38:17;8.07;97.52
71039;SHT30;58692;43.212;27.908;2023-12-14T02:40:43;8.14;97.26
71039;SHT30;58692;43.212;27.908;2023-12-14T02:43:08;8.17;97.26
71039;SHT30;58692;43.212;27.908;2023-12-14T02:45:34;8.18;97.27
71039;SHT30;58692;43.212;27.908;2023-12-14T02:47:59;8.18;97.18
71039;SHT30;58692;43.212;27.908;2023-12-14T02:50:25;8.18;97.19
71039;SHT30;58692;43.212;27.908;2023-12-14T02:52:51;8.21;97.17
71039;SHT30;58692;43.212;27.908;2023-12-14T02:55:16;8.23;97.16
71039;SHT30;58692;43.212;27.908;2023-12-14T02:57:42;8.25;97.12
71039;SHT30;58692;43.212;27.908;2023-12-14T03:00:08;8.27;97.05
71039;SHT30;58692;43.212;27.908;2023-12-14T03:02:34;8.23;97.07
71039;SHT30;58692;43.212;27.908;2023-12-14T03:04:59;8.17;97.11
71039;SHT30;58692;43.212;27.908;2023-12-14T03:07:25;8.17;97.21
71039;SHT30;58692;43.212;27.908;2023-12-14T03:09:50;8.18;97.26
71039;SHT30;58692;43.212;27.908;2023-12-14T03:12:16;8.14;97.25
71039;SHT30;58692;43.212;27.908;2023-12-14T03:14:41;8.08;97.68
71039;SHT30;58692;43.212;27.908;2023-12-14T03:17:07;8.11;97.74
71039;SHT30;58692;43.212;27.908;2023-12-14T03:19:39;8.07;97.87
71039;SHT30;58692;43.212;27.908;2023-12-14T03:22:05;8.04;97.85
71039;SHT30;58692;43.212;27.908;2023-12-14T03:24:30;8.03;98.20
71039;SHT30;58692;43.212;27.908;2023-12-14T03:26:56;8.14;98.16
71039;SHT30;58692;43.212;27.908;2023-12-14T03:29:22;8.20;98.02
71039;SHT30;58692;43.212;27.908;2023-12-14T03:31:48;8.23;97.90
71039;SHT30;58692;43.212;27.908;2023-12-14T03:34:13;8.25;97.87
71039;SHT30;58692;43.212;27.908;2023-12-14T03:36:39;8.25;97.82
71039;SHT30;58692;43.212;27.908;2023-12-14T03:39:04;8.27;97.79
71039;SHT30;58692;43.212;27.908;2023-12-14T03:41:31;8.24;97.87
71039;SHT30;58692;43.212;27.908;2023-12-14T03:43:57;8.33;97.97
71039;SHT30;58692;43.212;27.908;2023-12-14T03:46:23;8.34;97.77
71039;SHT30;58692;43.212;27.908;2023-12-14T03:48:49;8.33;97.69
71039;SHT30;58692;43.212;27.908;2023-12-14T03:51:18;8.33;97.65
71039;SHT30;58692;43.212;27.908;2023-12-14T03:53:44;8.37;97.63
71039;SHT30;58692;43.212;27.908;2023-12-14T03:56:10;8.35;97.65
71039;SHT30;58692;43.212;27.908;2023-12-14T03:58:36;8.44;97.90
71039;SHT30;58692;43.212;27.908;2023-12-14T04:01:02;8.56;98.44
71039;SHT30;58692;43.212;27.908;2023-12-14T04:03:27;8.68;98.41
71039;SHT30;58692;43.212;27.908;2023-12-14T04:05:53;8.76;98.72
71039;SHT30;58692;43.212;27.908;2023-12-14T04:08:18;8.82;98.71
71039;SHT30;58692;43.212;27.908;2023-12-14T04:10:44;8.86;98.54
71039;SHT30;58692;43.212;27.908;2023-12-14T04:13:09;8.76;98.35
71039;SHT30;58692;43.212;27.908;2023-12-14T04:15:35;8.80;98.54
71039;SHT30;58692;43.212;27.908;2023-12-14T04:18:01;8.85;98.44
71039;SHT30;58692;43.212;27.908;2023-12-14T04:20:26;8.66;97.90
71039;SHT30;58692;43.212;27.908;2023-12-14T04:22:52;8.71;98.37
71039;SHT30;58692;43.212;27.908;2023-12-14T04:25:17;8.73;98.56
71039;SHT30;58692;43.212;27.908;2023-12-14T04:27:43;8.78;98.42
71039;SHT30;58692;43.212;27.908;2023-12-14T04:30:09;8.78;98.30
71039;SHT30;58692;43.212;27.908;2023-12-14T04:32:36;8.79;98.48
71039;SHT30;58692;43.212;27.908;2023-12-14T04:35:02;8.99;99.08
71039;SHT30;58692;43.212;27.908;2023-12-14T04:37:28;9.09;98.77
71039;SHT30;58692;43.212;27.908;2023-12-14T04:39:55;9.16;98.77
71039;SHT30;58692;43.212;27.908;2023-12-14T04:42:21;9.16;98.71
71039;SHT30;58692;43.212;27.908;2023-12-14T04:44:46;9.23;98.74
71039;SHT30;58692;43.212;27.908;2023-12-14T04:47:12;9.24;98.80
71039;SHT30;58692;43.212;27.908;2023-12-14T04:49:37;9.33;98.81
71039;SHT30;58692;43.212;27.908;2023-12-14T04:52:03;9.34;98.78
71039;SHT30;58692;43.212;27.908;2023-12-14T04:54:29;9.36;98.68
71039;SHT30;58692;43.212;27.908;2023-12-14T04:56:55;9.34;98.52
71039;SHT30;58692;43.212;27.908;2023-12-14T04:59:21;9.31;98.36
71039;SHT30;58692;43.212;27.908;2023-12-14T05:01:46;9.22;98.20
71039;SHT30;58692;43.212;27.908;2023-12-14T05:04:12;9.17;97.94
71039;SHT30;58692;43.212;27.908;2023-12-14T05:06:38;9.03;97.59
71039;SHT30;58692;43.212;27.908;2023-12-14T05:09:04;8.99;97.79
71039;SHT30;58692;43.212;27.908;2023-12-14T05:11:31;8.99;97.70
71039;SHT30;58692;43.212;27.908;2023-12-14T05:13:57;8.93;97.77
71039;SHT30;58692;43.212;27.908;2023-12-14T05:16:23;8.89;97.83
71039;SHT30;58692;43.212;27.908;2023-12-14T05:18:53;8.86;97.80
71039;SHT30;58692;43.212;27.908;2023-12-14T05:21:26;8.85;97.71
71039;SHT30;58692;43.212;27.908;2023-12-14T05:24:00;8.69;97.71
71039;SHT30;58692;43.212;27.908;2023-12-14T05:26:26;8.71;97.78
71039;SHT30;58692;43.212;27.908;2023-12-14T05:28:52;8.65;97.63
71039;SHT30;58692;43.212;27.908;2023-12-14T05:31:18;8.68;97.58
71039;SHT30;58692;43.212;27.908;2023-12-14T05:33:44;8.65;97.62
71039;SHT30;58692;43.212;27.908;2023-12-14T05:36:10;8.71;97.45
71039;SHT30;58692;43.212;27.908;2023-12-14T05:38:38;8.69;97.51
71039;SHT30;58692;43.212;27.908;2023-12-14T05:41:04;8.64;97.85
71039;SHT30;58692;43.212;27.908;2023-12-14T05:43:29;8.64;97.76
71039;SHT30;58692;43.212;27.908;2023-12-14T05:45:55;8.64;97.88
71039;SHT30;58692;43.212;27.908;2023-12-14T05:48:20;8.69;97.95
71039;SHT30;58692;43.212;27.908;2023-12-14T05:50:46;8.73;97.79
71039;SHT30;58692;43.212;27.908;2023-12-14T05:53:14;8.73;97.80
71039;SHT30;58692;43.212;27.908;2023-12-14T05:55:43;8.76;97.72
71039;SHT30;58692;43.212;27.908;2023-12-14T05:58:08;8.80;97.57
71039;SHT30;58692;43.212;27.908;2023-12-14T06:00:34;8.80;97.82
71039;SHT30;58692;43.212;27.908;2023-12-14T06:03:03;8.88;98.02
71039;SHT30;58692;43.212;27.908;2023-12-14T06:05:29;8.93;98.00
71039;SHT30;58692;43.212;27.908;2023-12-14T06:07:55;9.00;97.95
71039;SHT30;58692;43.212;27.908;2023-12-14T06:10:24;9.02;97.67
71039;SHT30;58692;43.212;27.908;2023-12-14T06:12:49;9.00;97.57
71039;SHT30;58692;43.212;27.908;2023-12-14T06:15:15;8.96;97.84
71039;SHT30;58692;43.212;27.908;2023-12-14T06:17:41;8.96;97.78
71039;SHT30;58692;43.212;27.908;2023-12-14T06:20:10;9.03;97.83
71039;SHT30;58692;43.212;27.908;2023-12-14T06:22:37;9.06;97.77
71039;SHT30;58692;43.212;27.908;2023-12-14T06:25:03;9.10;97.47
71039;SHT30;58692;43.212;27.908;2023-12-14T06:27:29;9.09;97.61
71039;SHT30;58692;43.212;27.908;2023-12-14T06:29:55;9.10;97.41
71039;SHT30;58692;43.212;27.908;2023-12-14T06:32:21;9.13;97.21
71039;SHT30;58692;43.212;27.908;2023-12-14T06:34:47;9.15;97.29
71039;SHT30;58692;43.212;27.908;2023-12-14T06:37:22;9.17;97.11
71039;SHT30;58692;43.212;27.908;2023-12-14T06:40:06;9.19;97.16
71039;SHT30;58692;43.212;27.908;2023-12-14T06:42:32;9.19;97.18
71039;SHT30;58692;43.212;27.908;2023-12-14T06:45:01;9.29;97.10
71039;SHT30;58692;43.212;27.908;2023-12-14T06:47:30;9.26;97.24
71039;SHT30;58692;43.212;27.908;2023-12-14T06:49:56;9.31;97.27
71039;SHT30;58692;43.212;27.908;2023-12-14T06:52:30;9.30;97.32
71039;SHT30;58692;43.212;27.908;2023-12-14T06:55:01;9.39;97.14
71039;SHT30;58692;43.212;27.908;2023-12-14T06:57:37;9.44;97.07
71039;SHT30;58692;43.212;27.908;2023-12-14T07:00:03;9.47;96.99
71039;SHT30;58692;43.212;27.908;2023-12-14T07:02:29;9.44;96.84
71039;SHT30;58692;43.212;27.908;2023-12-14T07:04:55;9.48;96.99
71039;SHT30;58692;43.212;27.908;2023-12-14T07:07:41;9.54;96.95
71039;SHT30;58692;43.212;27.908;2023-12-14T07:10:07;9.64;96.86
71039;SHT30;58692;43.212;27.908;2023-12-14T07:12:33;9.65;96.68
71039;SHT30;58692;43.212;27.908;2023-12-14T07:14:58;9.73;96.67
71039;SHT30;58692;43.212;27.908;2023-12-14T07:17:24;9.75;96.59
71039;SHT30;58692;43.212;27.908;2023-12-14T07:19:51;9.84;96.48
71039;SHT30;58692;43.212;27.908;2023-12-14T07:22:16;9.90;96.41
71039;SHT30;58692;43.212;27.908;2023-12-14T07:24:42;9.94;96.26
71039;SHT30;58692;43.212;27.908;2023-12-14T07:27:08;9.95;96.04
71039;SHT30;58692;43.212;27.908;2023-12-14T07:29:36;9.95;96.03
71039;SHT30;58692;43.212;27.908;2023-12-14T07:32:05;10.01;96.09
71039;SHT30;58692;43.212;27.908;2023-12-14T07:34:31;10.03;95.98
71039;SHT30;58692;43.212;27.908;2023-12-14T07:36:57;10.13;96.00
71039;SHT30;58692;43.212;27.908;2023-12-14T07:39:23;10.16;95.80
71039;SHT30;58692;43.212;27.908;2023-12-14T07:41:48;10.13;95.77
71039;SHT30;58692;43.212;27.908;2023-12-14T07:47:41;10.16;95.11
71039;SHT30;58692;43.212;27.908;2023-12-14T07:50:11;10.25;95.08
71039;SHT30;58692;43.212;27.908;2023-12-14T07:52:40;10.32;95.03
71039;SHT30;58692;43.212;27.908;2023-12-14T07:55:07;10.39;94.73
71039;SHT30;58692;43.212;27.908;2023-12-14T07:57:36;10.42;94.56
71039;SHT30;58692;43.212;27.908;2023-12-14T08:00:02;10.49;94.54
71039;SHT30;58692;43.212;27.908;2023-12-14T08:03:01;10.53;94.51
71039;SHT30;58692;43.212;27.908;2023-12-14T08:08:30;10.63;94.47
71039;SHT30;58692;43.212;27.908;2023-12-14T08:10:56;10.76;94.38
71039;SHT30;58692;43.212;27.908;2023-12-14T08:13:22;10.79;94.38
71039;SHT30;58692;43.212;27.908;2023-12-14T08:15:47;10.87;94.01
71039;SHT30;58692;43.212;27.908;2023-12-14T08:18:13;10.89;94.00
71039;SHT30;58692;43.212;27.908;2023-12-14T08:20:39;10.99;93.75
71039;SHT30;58692;43.212;27.908;2023-12-14T08:23:04;11.10;93.68
71039;SHT30;58692;43.212;27.908;2023-12-14T08:25:30;11.13;93.51
71039;SHT30;58692;43.212;27.908;2023-12-14T08:27:58;11.20;93.31
71039;SHT30;58692;43.212;27.908;2023-12-14T08:30:24;11.16;93.25
71039;SHT30;58692;43.212;27.908;2023-12-14T08:32:49;11.28;93.14
71039;SHT30;58692;43.212;27.908;2023-12-14T08:35:15;11.32;93.29
71039;SHT30;58692;43.212;27.908;2023-12-14T08:37:41;11.48;93.35
71039;SHT30;58692;43.212;27.908;2023-12-14T08:40:07;11.51;93.14
71039;SHT30;58692;43.212;27.908;2023-12-14T08:42:33;11.45;93.53
71039;SHT30;58692;43.212;27.908;2023-12-14T08:44:59;11.65;93.37
71039;SHT30;58692;43.212;27.908;2023-12-14T08:47:25;11.77;93.22
71039;SHT30;58692;43.212;27.908;2023-12-14T08:49:50;11.83;92.97
71039;SHT30;58692;43.212;27.908;2023-12-14T08:52:19;11.89;92.84
71039;SHT30;58692;43.212;27.908;2023-12-14T08:54:45;12.02;92.66
71039;SHT30;58692;43.212;27.908;2023-12-14T08:57:11;12.10;92.35
71039;SHT30;58692;43.212;27.908;2023-12-14T08:59:37;12.12;92.16
71039;SHT30;58692;43.212;27.908;2023-12-14T09:02:03;12.22;92.35
71039;SHT30;58692;43.212;27.908;2023-12-14T09:04:28;12.26;92.20
71039;SHT30;58692;43.212;27.908;2023-12-14T09:06:54;12.32;92.13
71039;SHT30;58692;43.212;27.908;2023-12-14T09:09:20;12.39;91.92
71039;SHT30;58692;43.212;27.908;2023-12-14T09:11:49;12.44;92.05
71039;SHT30;58692;43.212;27.908;2023-12-14T09:14:14;12.54;91.95
71039;SHT30;58692;43.212;27.908;2023-12-14T09:16:41;12.60;91.85
71039;SHT30;58692;43.212;27.908;2023-12-14T09:19:07;12.68;91.70
71039;SHT30;58692;43.212;27.908;2023-12-14T09:21:33;12.68;91.52
71039;SHT30;58692;43.212;27.908;2023-12-14T09:23:59;12.73;91.48
71039;SHT30;58692;43.212;27.908;2023-12-14T09:26:25;12.76;91.38
71039;SHT30;58692;43.212;27.908;2023-12-14T09:28:53;12.84;91.25
71039;SHT30;58692;43.212;27.908;2023-12-14T09:31:19;12.88;90.91
71039;SHT30;58692;43.212;27.908;2023-12-14T09:33:47;13.01;90.70
71039;SHT30;58692;43.212;27.908;2023-12-14T09:36:15;13.11;90.11
71039;SHT30;58692;43.212;27.908;2023-12-14T09:38:45;13.18;89.89
71039;SHT30;58692;43.212;27.908;2023-12-14T09:41:12;13.29;89.89
71039;SHT30;58692;43.212;27.908;2023-12-14T09:43:38;13.32;89.63
71039;SHT30;58692;43.212;27.908;2023-12-14T09:46:04;13.36;89.89
71039;SHT30;58692;43.212;27.908;2023-12-14T09:48:31;13.38;89.76
71039;SHT30;58692;43.212;27.908;2023-12-14T09:51:00;13.45;89.96
71039;SHT30;58692;43.212;27.908;2023-12-14T09:53:26;13.52;89.89
71039;SHT30;58692;43.212;27.908;2023-12-14T09:55:51;13.55;89.50
71039;SHT30;58692;43.212;27.908;2023-12-14T09:58:17;13.59;89.12
71039;SHT30;58692;43.212;27.908;2023-12-14T10:00:55;13.61;89.04
71039;SHT30;58692;43.212;27.908;2023-12-14T10:03:27;13.67;88.67
71039;SHT30;58692;43.212;27.908;2023-12-14T10:05:58;13.69;88.58
71039;SHT30;58692;43.212;27.908;2023-12-14T10:08:26;13.80;88.33
71039;SHT30;58692;43.212;27.908;2023-12-14T10:10:53;13.87;87.97
71039;SHT30;58692;43.212;27.908;2023-12-14T10:13:36;13.91;87.69
71039;SHT30;58692;43.212;27.908;2023-12-14T10:16:05;13.97;87.62
71039;SHT30;58692;43.212;27.908;2023-12-14T10:18:41;13.99;87.32
71039;SHT30;58692;43.212;27.908;2023-12-14T10:21:09;14.06;86.84
71039;SHT30;58692;43.212;27.908;2023-12-14T10:23:50;14.18;86.62
71039;SHT30;58692;43.212;27.908;2023-12-14T10:26:16;14.28;86.21
71039;SHT30;58692;43.212;27.908;2023-12-14T10:28:41;14.31;86.01
71039;SHT30;58692;43.212;27.908;2023-12-14T10:31:07;14.41;85.44
71039;SHT30;58692;43.212;27.908;2023-12-14T10:33:37;14.68;84.46
71039;SHT30;58692;43.212;27.908;2023-12-14T10:36:13;14.96;84.01
71039;SHT30;58692;43.212;27.908;2023-12-14T10:38:40;15.11;83.27
71039;SHT30;58692;43.212;27.908;2023-12-14T10:41:17;15.36;82.65
71039;SHT30;58692;43.212;27.908;2023-12-14T10:43:47;15.59;82.02
71039;SHT30;58692;43.212;27.908;2023-12-14T10:46:14;15.71;81.08
71039;SHT30;58692;43.212;27.908;2023-12-14T10:48:40;15.60;80.80
71039;SHT30;58692;43.212;27.908;2023-12-14T10:51:11;15.54;80.88
71039;SHT30;58692;43.212;27.908;2023-12-14T10:53:37;15.43;81.04
71039;SHT30;58692;43.212;27.908;2023-12-14T10:56:05;15.50;81.32
71039;SHT30;58692;43.212;27.908;2023-12-14T10:58:52;15.44;81.04
71039;SHT30;58692;43.212;27.908;2023-12-14T11:01:20;15.42;81.09
71039;SHT30;58692;43.212;27.908;2023-12-14T11:03:48;15.38;81.04
71039;SHT30;58692;43.212;27.908;2023-12-14T11:06:31;15.32;80.85
71039;SHT30;58692;43.212;27.908;2023-12-14T11:09:01;15.19;81.39
71039;SHT30;58692;43.212;27.908;2023-12-14T11:11:55;15.21;81.12
71039;SHT30;58692;43.212;27.908;2023-12-14T11:14:23;15.29;80.81
71039;SHT30;58692;43.212;27.908;2023-12-14T11:17:01;15.29;80.32
71039;SHT30;58692;43.212;27.908;2023-12-14T11:19:35;15.31;80.21
71039;SHT30;58692;43.212;27.908;2023-12-14T11:22:11;15.26;79.87
71039;SHT30;58692;43.212;27.908;2023-12-14T11:24:45;15.32;79.47
71039;SHT30;58692;43.212;27.908;2023-12-14T11:27:15;15.35;78.67
71039;SHT30;58692;43.212;27.908;2023-12-14T11:29:47;15.35;78.65
71039;SHT30;58692;43.212;27.908;2023-12-14T11:32:13;15.33;78.69
71039;SHT30;58692;43.212;27.908;2023-12-14T11:34:39;15.35;78.35
71039;SHT30;58692;43.212;27.908;2023-12-14T11:37:05;15.46;77.49
71039;SHT30;58692;43.212;27.908;2023-12-14T11:39:31;15.47;77.49
71039;SHT30;58692;43.212;27.908;2023-12-14T11:42:06;15.52;77.03
71039;SHT30;58692;43.212;27.908;2023-12-14T11:45:02;15.71;76.71
71039;SHT30;58692;43.212;27.908;2023-12-14T11:47:38;15.84;75.93
71039;SHT30;58692;43.212;27.908;2023-12-14T11:50:27;15.96;75.36
71039;SHT30;58692;43.212;27.908;2023-12-14T11:53:06;15.97;75.90
71039;SHT30;58692;43.212;27.908;2023-12-14T11:55:35;15.94;76.32
71039;SHT30;58692;43.212;27.908;2023-12-14T11:58:01;15.86;76.29
71039;SHT30;58692;43.212;27.908;2023-12-14T12:00:29;15.77;76.57
71039;SHT30;58692;43.212;27.908;2023-12-14T12:03:11;15.80;76.49
71039;SHT30;58692;43.212;27.908;2023-12-14T12:05:41;15.80;76.13
71039;SHT30;58692;43.212;27.908;2023-12-14T12:08:07;15.84;76.21
71039;SHT30;58692;43.212;27.908;2023-12-14T12:10:34;15.84;76.21
71039;SHT30;58692;43.212;27.908;2023-12-14T12:13:02;15.87;75.51
71039;SHT30;58692;43.212;27.908;2023-12-14T12:15:31;15.97;75.17
71039;SHT30;58692;43.212;27.908;2023-12-14T12:17:57;16.00;75.34
71039;SHT30;58692;43.212;27.908;2023-12-14T12:20:23;15.97;75.27
71039;SHT30;58692;43.212;27.908;2023-12-14T12:22:51;15.96;75.30
71039;SHT30;58692;43.212;27.908;2023-12-14T12:25:20;15.89;75.31
71039;SHT30;58692;43.212;27.908;2023-12-14T12:27:46;15.83;75.74
71039;SHT30;58692;43.212;27.908;2023-12-14T12:30:12;15.80;75.90
71039;SHT30;58692;43.212;27.908;2023-12-14T12:32:40;15.76;75.72
71039;SHT30;58692;43.212;27.908;2023-12-14T12:35:07;15.76;75.52
71039;SHT30;58692;43.212;27.908;2023-12-14T12:37:33;15.71;75.92
71039;SHT30;58692;43.212;27.908;2023-12-14T12:39:59;15.62;76.08
71039;SHT30;58692;43.212;27.908;2023-12-14T12:42:25;15.63;76.33
71039;SHT30;58692;43.212;27.908;2023-12-14T12:44:51;15.60;76.06
71039;SHT30;58692;43.212;27.908;2023-12-14T12:47:17;15.59;76.28
71039;SHT30;58692;43.212;27.908;2023-12-14T12:49:42;15.54;76.48
71039;SHT30;58692;43.212;27.908;2023-12-14T12:52:09;15.57;76.07
71039;SHT30;58692;43.212;27.908;2023-12-14T12:54:35;15.54;76.16
71039;SHT30;58692;43.212;27.908;2023-12-14T12:57:01;15.57;76.23
71039;SHT30;58692;43.212;27.908;2023-12-14T12:59:29;15.50;76.43
71039;SHT30;58692;43.212;27.908;2023-12-14T13:02:01;15.49;76.56
71039;SHT30;58692;43.212;27.908;2023-12-14T13:04:28;15.46;76.38
71039;SHT30;58692;43.212;27.908;2023-12-14T13:06:56;15.49;76.23
71039;SHT30;58692;43.212;27.908;2023-12-14T13:09:22;15.39;76.77
71039;SHT30;58692;43.212;27.908;2023-12-14T13:11:48;15.36;77.04
71039;SHT30;58692;43.212;27.908;2023-12-14T13:14:15;15.23;77.45
71039;SHT30;58692;43.212;27.908;2023-12-14T13:16:43;15.13;77.86
71039;SHT30;58692;43.212;27.908;2023-12-14T13:19:09;15.05;77.93
71039;SHT30;58692;43.212;27.908;2023-12-14T13:21:35;15.09;78.25
71039;SHT30;58692;43.212;27.908;2023-12-14T13:24:01;15.13;78.17
71039;SHT30;58692;43.212;27.908;2023-12-14T13:26:27;15.12;78.08
71039;SHT30;58692;43.212;27.908;2023-12-14T13:28:53;15.11;77.53
71039;SHT30;58692;43.212;27.908;2023-12-14T13:31:19;15.16;77.02
71039;SHT30;58692;43.212;27.908;2023-12-14T13:33:46;15.16;76.44
71039;SHT30;58692;43.212;27.908;2023-12-14T13:36:13;15.08;76.53
71039;SHT30;58692;43.212;27.908;2023-12-14T13:38:40;14.93;76.68
71039;SHT30;58692;43.212;27.908;2023-12-14T13:41:07;14.93;76.49
71039;SHT30;58692;43.212;27.908;2023-12-14T13:43:33;14.82;76.52
71039;SHT30;58692;43.212;27.908;2023-12-14T13:45:58;14.85;76.44
71039;SHT30;58692;43.212;27.908;2023-12-14T13:48:25;14.81;76.46
71039;SHT30;58692;43.212;27.908;2023-12-14T13:50:57;14.75;75.58
71039;SHT30;58692;43.212;27.908;2023-12-14T13:53:23;14.74;73.93
71039;SHT30;58692;43.212;27.908;2023-12-14T13:55:49;14.67;72.80
71039;SHT30;58692;43.212;27.908;2023-12-14T13:58:15;14.60;72.74
71039;SHT30;58692;43.212;27.908;2023-12-14T14:00:41;14.51;72.66
71039;SHT30;58692;43.212;27.908;2023-12-14T14:03:07;14.47;72.28
71039;SHT30;58692;43.212;27.908;2023-12-14T14:05:33;14.36;72.64
71039;SHT30;58692;43.212;27.908;2023-12-14T14:08:00;14.18;73.53
71039;SHT30;58692;43.212;27.908;2023-12-14T14:10:25;14.14;73.96
71039;SHT30;58692;43.212;27.908;2023-12-14T14:12:58;14.03;74.40
71039;SHT30;58692;43.212;27.908;2023-12-14T14:15:30;13.89;74.75
71039;SHT30;58692;43.212;27.908;2023-12-14T14:17:56;13.86;74.71
71039;SHT30;58692;43.212;27.908;2023-12-14T14:20:22;13.75;75.30
71039;SHT30;58692;43.212;27.908;2023-12-14T14:22:49;13.58;75.17
71039;SHT30;58692;43.212;27.908;2023-12-14T14:25:15;13.45;76.06
71039;SHT30;58692;43.212;27.908;2023-12-14T14:27:41;13.41;76.24
71039;SHT30;58692;43.212;27.908;2023-12-14T14:30:07;13.26;76.10
71039;SHT30;58692;43.212;27.908;2023-12-14T14:32:33;13.39;76.20
71039;SHT30;58692;43.212;27.908;2023-12-14T14:35:03;13.38;75.81
71039;SHT30;58692;43.212;27.908;2023-12-14T14:37:29;13.28;76.50
71039;SHT30;58692;43.212;27.908;2023-12-14T14:39:55;13.18;76.61
71039;SHT30;58692;43.212;27.908;2023-12-14T14:42:20;13.21;76.85
71039;SHT30;58692;43.212;27.908;2023-12-14T14:44:46;13.14;77.03
71039;SHT30;58692;43.212;27.908;2023-12-14T14:47:12;13.19;77.22
71039;SHT30;58692;43.212;27.908;2023-12-14T14:49:39;13.14;77.59
71039;SHT30;58692;43.212;27.908;2023-12-14T14:52:06;13.15;77.52
71039;SHT30;58692;43.212;27.908;2023-12-14T14:54:31;13.16;77.26
71039;SHT30;58692;43.212;27.908;2023-12-14T14:57:00;13.15;77.47
71039;SHT30;58692;43.212;27.908;2023-12-14T14:59:31;13.12;77.43
71039;SHT30;58692;43.212;27.908;2023-12-14T15:01:59;13.08;77.69
71039;SHT30;58692;43.212;27.908;2023-12-14T15:04:27;13.07;77.91
71039;SHT30;58692;43.212;27.908;2023-12-14T15:06:52;13.00;77.27
71039;SHT30;58692;43.212;27.908;2023-12-14T15:09:18;12.95;77.60
71039;SHT30;58692;43.212;27.908;2023-12-14T15:11:51;12.97;77.64
71039;SHT30;58692;43.212;27.908;2023-12-14T15:14:16;13.00;77.41
71039;SHT30;58692;43.212;27.908;2023-12-14T15:16:44;12.88;77.23
71039;SHT30;58692;43.212;27.908;2023-12-14T15:19:10;12.85;77.37
71039;SHT30;58692;43.212;27.908;2023-12-14T15:21:37;12.77;77.40
71039;SHT30;58692;43.212;27.908;2023-12-14T15:24:03;12.68;77.92
71039;SHT30;58692;43.212;27.908;2023-12-14T15:26:29;12.60;78.09
71039;SHT30;58692;43.212;27.908;2023-12-14T15:28:57;12.59;78.37